Details From KLAX - Los Angeles Intl
To KAVX - Catalina
Flight Number 452
Tags flyingdevstudio
Created
Modified
Stats Distance 50 nm / 93 km
Max Altitude 0 ft / 0 m
Waypoints 5
Social Downloads 26
Likes 1
Share VATSIM

Download

Looking for another format? Having issues loading an existing format? Contact us
Advertisement - Login to hide

Notes

Requested: KLAX R0953 ENNEY DAMUG KAVX

Route

KLAX R0953 ENNEY DAMUG KAVX

ID Type Via Altitude Latitude Longitude Leg Dist Tot Dist Heading (true) Name
O KLAX APT - 0 ft / 0 m 33.94313˚ -118.40892˚ - 0 nm - Los Angeles Intl
R0953 FIX - 0 ft / 0 m 33.95019˚ -118.40166˚ 0 nm 0 nm 40° / 40° -
ENNEY FIX - 0 ft / 0 m 33.94278˚ -118.50139˚ 4 nm 5 nm 265° / 265° -
DAMUG FIX - 0 ft / 0 m 33.51056˚ -118.17222˚ 30 nm 36 nm 148° / 148° -
O KAVX APT - 0 ft / 0 m 33.40466˚ -118.41588˚ 13 nm 50 nm 243° / 242° Catalina

Altitude Profile

Advertisement - Login to hide

KLAX

Details ICAO KLAX (LAX)
Name Los Angeles Intl
Region United States
Timezone America/Los_Angeles (UTC-8.0)
Stats Elevation 126 ft / 38 m (AMSL)
Location 33.943130° -118.408917°
Runways 4
Magnetic Variation 12.006° E

METAR

KLAX 150553Z 02004KT 10SM FEW200 17/06 A3008 RMK AO2 SLP183 T01720056 10194 20139 53012

Decode

TAF

KLAX 150531Z 1506/1612 06005KT P6SM SKC FM151600 VRB03KT P6SM SKC FM152000 26008KT P6SM SKC FM160400 VRB03KT P6SM SKC FM160900 16006KT 5SM BR SCT005

Decode

Departure Runways

ID Width Length Bearing (true) Bearing (mag) Surface Threshold Offset Overrun Length
06L 151 ft / 46 m 8,907 ft / 2,715 m 82.98° 70.97° Concrete 0 ft / 0 m 0 ft / 0 m
06R 151 ft / 46 m 10,266 ft / 3,129 m 82.95° 70.94° Concrete 331 ft / 101 m 0 ft / 0 m
07L 151 ft / 46 m 12,069 ft / 3,679 m 82.96° 70.95° Concrete 0 ft / 0 m 0 ft / 0 m
07R 200 ft / 61 m 11,081 ft / 3,377 m 82.96° 70.95° Concrete 0 ft / 0 m 397 ft / 121 m
24L 151 ft / 46 m 10,266 ft / 3,129 m 262.97° 250.96° Concrete 0 ft / 0 m 174 ft / 53 m
24R 151 ft / 46 m 8,907 ft / 2,715 m 263.00° 250.99° Concrete 0 ft / 0 m 305 ft / 93 m
25L 200 ft / 61 m 11,081 ft / 3,377 m 262.98° 250.97° Concrete 0 ft / 0 m 1,053 ft / 321 m
25R 151 ft / 46 m 12,069 ft / 3,679 m 262.98° 250.97° Concrete 958 ft / 292 m 154 ft / 47 m

KAVX

Details ICAO KAVX (AVX)
Name Catalina
Region United States
Timezone America/Los_Angeles (UTC-8.0)
Stats Elevation 1,601 ft / 488 m (AMSL)
Location 33.404656° -118.415880°
Runways 1
Magnetic Variation 11.901° E

METAR

KAVX 150551Z AUTO 10010G18KT 10SM CLR 21/M13 A3013 RMK AO2 SLP178 T02111128 10228 20206 53009

Decode

TAF

Not found

Destination Runways

ID Width Length Bearing (true) Bearing (mag) Surface Threshold Offset Overrun Length
04 59 ft / 18 m 3,127 ft / 953 m 54.93° 43.03° Asphalt 131 ft / 40 m 0 ft / 0 m
22 59 ft / 18 m 3,127 ft / 953 m 234.93° 223.03° Asphalt 62 ft / 19 m 0 ft / 0 m

Popular Alternatives